Les articles d'ExpertMaritime.pro


Votre expert maritime indépendant Xavier Braive est disponible sur la zone de Meschers-sur-Gironde - Port de Meschers - 17132

(Charente-Maritime - Poitou-Charentes)


Voir plan
Situation :

Le Port de Meschers, situé sur la rive droite de la Gironde près de son embouchure, est abrité par tous temps.

Il comprend :

- Un avant-chenal de 250 m de long, large de 8 m qui fait un angle de 8° W avec le Nord vrai, creusé à la cote + 0,50 m ; le vieux havre d’échouage ou « chenal » équipé de quai, cales en 1861.

- Un bassin d’échouage créé 1985 de 121 places sur pontons flottants, creuse à la cote + 1 m.

- Un bassin à flot mis en service en 1990, de 121 places à l’origine, 116 aujourd’hui (on y a placé des bateaux plus grands que prévu), en arrière d’une porte-écluse, T.E. 2,50 m ; le seuil de l’écluse est à la cote + 2 m ; les portes ouvrent quand la mer atteint le niveau + 3,50 m, avec 1,50 m d’eau sur le seuil (les cotes se réfèrent au niveau 0 des cartes marines).
Lat. 45° 33?, 3 N – Long. 00° 56?, 6 W ; carte SHOM 7029.
Distances : LE VERDON : 3,5 M. – ROYAN : 5 M. – PAUILLAC : 23 M. – BORDEAUX : 48 M.

- Une zone de mouillage, ouverte d’Avril à Septembre, de 22 corps morts, sur les vases à l’est du chenal d’accès.

Pratique :

Ville de Meschers : Location des anneaux.
Capitainerie, Tél.: 05.46.02.56.89 – VHF canal 9 –
n° de Fax 05 46 02 34 77 - GSM 06 15 11 23 10
Monsieur KERDUDOU est le capitaine assermenté du port.

SAUVETAGE :
CROSS ETEL, Tél.: O2 .97.553.535.
De juin à septembre Poste de Secours – Plage des Nonnes,
Tél. : 05.46.02.72.92, situé à 1 mille au nord du Port.
Météo affichée à la Capitainerie.
Météo locale sur la zone Port de Meschers
Heure (UTC) Dir.Vent Vit.Vent (nds) Force (Bft) T°min T°max P (mb) Hum.Rel.
26/02/2021 - 18:00:00 au 26/02/2021 - 21:00:00 047° (NE) 11 4 9°C 10°C 1033 74 %
26/02/2021 - 21:00:00 au 27/02/2021 - 00:00:00 047° (NE) 11 4 7°C 8°C 1035 78 %
27/02/2021 - 00:00:00 au 27/02/2021 - 03:00:00 041° (NE) 13 4 6°C 7°C 1034 81 %
27/02/2021 - 03:00:00 au 27/02/2021 - 06:00:00 038° (NE) 13 4 5°C 5°C 1035 83 %
27/02/2021 - 06:00:00 au 27/02/2021 - 09:00:00 044° (NE) 13 4 7°C 7°C 1035 75 %
27/02/2021 - 09:00:00 au 27/02/2021 - 12:00:00 044° (NE) 16 4 10°C 10°C 1034 61 %
27/02/2021 - 12:00:00 au 27/02/2021 - 15:00:00 038° (NE) 15 4 11°C 11°C 1032 61 %
27/02/2021 - 15:00:00 au 27/02/2021 - 18:00:00 039° (NE) 12 4 9°C 9°C 1031 68 %
27/02/2021 - 18:00:00 au 27/02/2021 - 21:00:00 054° (NE) 15 4 7°C 7°C 1031 69 %
27/02/2021 - 21:00:00 au 28/02/2021 - 00:00:00 053° (NE) 13 4 6°C 6°C 1030 77 %
28/02/2021 - 00:00:00 au 28/02/2021 - 03:00:00 044° (NE) 12 4 5°C 5°C 1028 80 %
28/02/2021 - 03:00:00 au 28/02/2021 - 06:00:00 063° (ENE) 13 4 4°C 4°C 1028 81 %
28/02/2021 - 06:00:00 au 28/02/2021 - 09:00:00 068° (ENE) 11 4 6°C 6°C 1027 77 %
28/02/2021 - 09:00:00 au 28/02/2021 - 12:00:00 089° (E) 10 3 11°C 11°C 1027 69 %
28/02/2021 - 12:00:00 au 28/02/2021 - 15:00:00 115° (ESE) 12 4 14°C 14°C 1025 65 %
28/02/2021 - 15:00:00 au 28/02/2021 - 18:00:00 058° (ENE) 10 3 11°C 11°C 1025 78 %
28/02/2021 - 18:00:00 au 28/02/2021 - 21:00:00 077° (ENE) 12 4 9°C 9°C 1025 82 %
28/02/2021 - 21:00:00 au 01/03/2021 - 00:00:00 094° (E) 9 3 8°C 8°C 1025 80 %
01/03/2021 - 00:00:00 au 01/03/2021 - 03:00:00 097° (E) 9 3 8°C 8°C 1024 83 %
01/03/2021 - 03:00:00 au 01/03/2021 - 06:00:00 107° (ESE) 10 3 7°C 7°C 1024 81 %
01/03/2021 - 06:00:00 au 01/03/2021 - 09:00:00 111° (ESE) 11 4 10°C 10°C 1024 73 %
01/03/2021 - 09:00:00 au 01/03/2021 - 12:00:00 117° (ESE) 11 4 13°C 13°C 1024 69 %
01/03/2021 - 12:00:00 au 01/03/2021 - 15:00:00 124° (SE) 9 3 15°C 15°C 1022 69 %
01/03/2021 - 15:00:00 au 01/03/2021 - 18:00:00 118° (ESE) 8 3 12°C 12°C 1022 82 %
01/03/2021 - 18:00:00 au 01/03/2021 - 21:00:00 132° (SE) 11 4 11°C 11°C 1023 84 %
01/03/2021 - 21:00:00 au 02/03/2021 - 00:00:00 136° (SE) 13 4 9°C 9°C 1023 83 %
02/03/2021 - 00:00:00 au 02/03/2021 - 03:00:00 139° (SE) 15 4 9°C 9°C 1023 82 %
02/03/2021 - 03:00:00 au 02/03/2021 - 06:00:00 142° (SE) 14 4 9°C 9°C 1023 83 %
02/03/2021 - 06:00:00 au 02/03/2021 - 09:00:00 145° (SE) 16 4 11°C 11°C 1025 78 %
02/03/2021 - 09:00:00 au 02/03/2021 - 12:00:00 154° (SSE) 12 4 14°C 14°C 1026 72 %
02/03/2021 - 12:00:00 au 02/03/2021 - 15:00:00 187° (S) 9 3 15°C 15°C 1026 63 %
02/03/2021 - 15:00:00 au 02/03/2021 - 18:00:00 197° (SSW) 6 2 12°C 12°C 1026 73 %
02/03/2021 - 18:00:00 au 02/03/2021 - 21:00:00 225° (SW) 3 1 10°C 10°C 1028 88 %
02/03/2021 - 21:00:00 au 03/03/2021 - 00:00:00 140° (SE) 3 1 10°C 10°C 1029 88 %
03/03/2021 - 00:00:00 au 03/03/2021 - 03:00:00 133° (SE) 6 2 10°C 10°C 1029 90 %
03/03/2021 - 03:00:00 au 03/03/2021 - 06:00:00 140° (SE) 8 3 9°C 9°C 1029 90 %
03/03/2021 - 06:00:00 au 03/03/2021 - 09:00:00 143° (SE) 8 3 11°C 11°C 1030 87 %
03/03/2021 - 09:00:00 au 03/03/2021 - 12:00:00 159° (SSE) 4 2 15°C 15°C 1029 71 %
03/03/2021 - 12:00:00 au 03/03/2021 - 15:00:00 358° (N) 2 1 16°C 16°C 1028 67 %
03/03/2021 - 15:00:00 au 03/03/2021 - 18:00:00 013° (NNE) 6 2 13°C 13°C 1027 81 %
openweathermap
Ces informations sont partiellement extraites de Wikipedia, et des sites pertinents pour cette zone. Compilation d'informations de Xavier Braive.
Xavier Braive, Expert Maritime Plaisance se déplace sur Port de Meschers, Meschers-sur-Gironde, 17132, Charente-Maritime

Welcome to Cross-Channel yachtmen !

we can deliver survey reports in english, in case of dammage or prior to buy / sell a boat in France (pre-purchase survey), and more specifically on the Atlantic coast.

Uw onafhankelijk jachtexpert

verkrijkbaar op de Atlantische kust, bij aankoop of reparatie van jachten (metaal, polyester of composiet). Rapporten in Nederlands

BRAIVE, Xavier
Xavier Braive
Expert Maritime
Nouvelle Aquitaine
France
06 71 50 20 17